<?xml version="1.0" encoding="UTF-8" standalone="no" ?>
<gpx xmlns="http://www.topografix.com/GPX/1/1" xmlns:xsi="http://www.w3.org/2001/XMLSchema-instance" xsi:schemaLocation="http://www.topografix.com/GPX/1/1 http://www.topografix.com/GPX/1/1/gpx.xsd" version="1.1" creator="VisuGPX - https://www.visugpx.com">
  <metadata>
    <name>grand_colombier-TET</name>
    <desc><![CDATA[name=2022 09 24 Begin of the TET section 20 Track
cmt=
desc=
time=2022-09-24T09:46:08Z]]></desc>
  </metadata>
  <wpt lat="45.85842" lon="5.77164">
    <ele>661.1</ele>
    <name><![CDATA[à vérif]]></name>
    <desc><![CDATA[name=à vérif]]></desc>
  </wpt>
  <wpt lat="45.86391" lon="5.82138">
    <ele>238.1</ele>
    <name><![CDATA[ok]]></name>
    <desc><![CDATA[name=ok]]></desc>
  </wpt>
  <wpt lat="46.00337" lon="5.81125">
    <ele>271.3</ele>
    <name><![CDATA[ok]]></name>
    <desc><![CDATA[name=ok]]></desc>
  </wpt>
  <wpt lat="45.98447" lon="5.79127">
    <ele>573.6</ele>
    <name><![CDATA[ok]]></name>
    <desc><![CDATA[name=ok]]></desc>
  </wpt>
  <wpt lat="45.97026" lon="5.76896">
    <ele>1090.4</ele>
    <name><![CDATA[ok]]></name>
    <desc><![CDATA[name=ok]]></desc>
  </wpt>
  <wpt lat="46.09692" lon="5.77954">
    <ele>576.7</ele>
    <name><![CDATA[ok]]></name>
    <desc><![CDATA[name=ok]]></desc>
  </wpt>
  <wpt lat="46.17247" lon="5.75381">
    <ele>531.9</ele>
    <name><![CDATA[ok]]></name>
    <desc><![CDATA[name=ok]]></desc>
  </wpt>
  <wpt lat="45.89804" lon="5.73838">
    <ele>910.1</ele>
    <name><![CDATA[ok]]></name>
    <desc><![CDATA[name=ok]]></desc>
  </wpt>
  <wpt lat="45.92864" lon="5.73929">
    <ele>830.7</ele>
  </wpt>
  <wpt lat="45.95229" lon="5.74925">
    <ele>1311.1</ele>
  </wpt>
  <wpt lat="45.86162" lon="5.79089">
    <ele>594.4</ele>
    <name><![CDATA[par la route]]></name>
    <desc><![CDATA[name=par la route]]></desc>
  </wpt>
  <wpt lat="45.92514" lon="5.79762">
    <ele>682.4</ele>
    <name><![CDATA[Vérif si autorisé]]></name>
    <desc><![CDATA[name=Vérif si autorisé]]></desc>
  </wpt>
  <wpt lat="45.89315" lon="5.7063">
    <ele>484.5</ele>
    <name><![CDATA[ok]]></name>
    <desc><![CDATA[name=ok]]></desc>
  </wpt>
  <wpt lat="45.87199" lon="5.7075">
    <ele>246.1</ele>
    <name><![CDATA[ok]]></name>
    <desc><![CDATA[name=ok]]></desc>
  </wpt>
  <wpt lat="45.8999" lon="5.83082">
    <ele>240</ele>
    <name><![CDATA[ok]]></name>
    <desc><![CDATA[name=ok]]></desc>
  </wpt>
  <trk>
    <name><![CDATA[Seyssel - Culoz - Surjoux]]></name>
    <desc><![CDATA[name=Seyssel - Culoz - Surjoux
cmt=
desc=
time=2022-12-31T10:38:18Z]]></desc>
    <extensions>
      <line xmlns="http://www.topografix.com/GPX/gpx_style/0/2">
        <color>FF00FF</color>
        <width>4</width>
      </line>
    </extensions>
    <trkseg>
      <trkpt lat="45.9515" lon="5.83002">
        <ele>260.848</ele>
        <time>2022-12-31T10:38:18Z</time>
      </trkpt>
      <trkpt lat="45.95137" lon="5.83003">
        <ele>260.861</ele>
        <time>2022-12-31T10:38:19Z</time>
      </trkpt>
      <trkpt lat="45.9514" lon="5.82944">
        <ele>260.817</ele>
        <time>2022-12-31T10:38:23Z</time>
      </trkpt>
      <trkpt lat="45.95115" lon="5.82872">
        <ele>261.109</ele>
        <time>2022-12-31T10:38:28Z</time>
      </trkpt>
      <trkpt lat="45.94931" lon="5.8268">
        <ele>270.155</ele>
        <time>2022-12-31T10:38:45Z</time>
      </trkpt>
      <trkpt lat="45.94876" lon="5.82564">
        <ele>276.226</ele>
        <time>2022-12-31T10:38:52Z</time>
      </trkpt>
      <trkpt lat="45.94816" lon="5.82379">
        <ele>286.456</ele>
        <time>2022-12-31T10:39:02Z</time>
      </trkpt>
      <trkpt lat="45.94725" lon="5.82226">
        <ele>294.577</ele>
        <time>2022-12-31T10:39:12Z</time>
      </trkpt>
      <trkpt lat="45.9466" lon="5.81842">
        <ele>312.198</ele>
        <time>2022-12-31T10:39:32Z</time>
      </trkpt>
      <trkpt lat="45.94575" lon="5.81595">
        <ele>317.417</ele>
        <time>2022-12-31T10:39:45Z</time>
      </trkpt>
      <trkpt lat="45.94536" lon="5.81528">
        <ele>318.183</ele>
        <time>2022-12-31T10:39:49Z</time>
      </trkpt>
      <trkpt lat="45.94485" lon="5.81483">
        <ele>320.652</ele>
        <time>2022-12-31T10:39:53Z</time>
      </trkpt>
      <trkpt lat="45.93981" lon="5.81255">
        <ele>327.363</ele>
        <time>2022-12-31T10:40:27Z</time>
      </trkpt>
      <trkpt lat="45.93749" lon="5.81193">
        <ele>318.925</ele>
        <time>2022-12-31T10:40:41Z</time>
      </trkpt>
      <trkpt lat="45.93632" lon="5.81197">
        <ele>318.226</ele>
        <time>2022-12-31T10:40:48Z</time>
      </trkpt>
      <trkpt lat="45.9339" lon="5.81166">
        <ele>321.308</ele>
        <time>2022-12-31T10:41:03Z</time>
      </trkpt>
      <trkpt lat="45.93242" lon="5.81089">
        <ele>316.609</ele>
        <time>2022-12-31T10:41:16Z</time>
      </trkpt>
      <trkpt lat="45.93232" lon="5.81059">
        <ele>316.053</ele>
        <time>2022-12-31T10:41:20Z</time>
      </trkpt>
      <trkpt lat="45.93262" lon="5.8099">
        <ele>321.084</ele>
        <time>2022-12-31T10:41:30Z</time>
      </trkpt>
      <trkpt lat="45.93339" lon="5.8099">
        <ele>328.564</ele>
        <time>2022-12-31T10:41:41Z</time>
      </trkpt>
      <trkpt lat="45.93449" lon="5.80949">
        <ele>338.715</ele>
        <time>2022-12-31T10:41:56Z</time>
      </trkpt>
      <trkpt lat="45.93722" lon="5.80899">
        <ele>362.536</ele>
        <time>2022-12-31T10:42:33Z</time>
      </trkpt>
      <trkpt lat="45.93724" lon="5.80882">
        <ele>365.335</ele>
        <time>2022-12-31T10:42:37Z</time>
      </trkpt>
      <trkpt lat="45.93639" lon="5.80813">
        <ele>377.741</ele>
        <time>2022-12-31T10:42:55Z</time>
      </trkpt>
      <trkpt lat="45.93548" lon="5.80768">
        <ele>388.74</ele>
        <time>2022-12-31T10:43:11Z</time>
      </trkpt>
      <trkpt lat="45.93489" lon="5.80703">
        <ele>399.261</ele>
        <time>2022-12-31T10:43:23Z</time>
      </trkpt>
      <trkpt lat="45.93459" lon="5.80692">
        <ele>402.444</ele>
        <time>2022-12-31T10:43:30Z</time>
      </trkpt>
      <trkpt lat="45.93423" lon="5.80655">
        <ele>407.805</ele>
        <time>2022-12-31T10:43:39Z</time>
      </trkpt>
      <trkpt lat="45.93299" lon="5.8065">
        <ele>424.415</ele>
        <time>2022-12-31T10:44:02Z</time>
      </trkpt>
      <trkpt lat="45.93245" lon="5.80618">
        <ele>432.109</ele>
        <time>2022-12-31T10:44:12Z</time>
      </trkpt>
      <trkpt lat="45.93187" lon="5.80535">
        <ele>443.345</ele>
        <time>2022-12-31T10:44:25Z</time>
      </trkpt>
      <trkpt lat="45.93174" lon="5.8047">
        <ele>452.556</ele>
        <time>2022-12-31T10:44:35Z</time>
      </trkpt>
      <trkpt lat="45.93143" lon="5.80409">
        <ele>462.866</ele>
        <time>2022-12-31T10:44:45Z</time>
      </trkpt>
      <trkpt lat="45.93088" lon="5.80436">
        <ele>467.787</ele>
        <time>2022-12-31T10:44:54Z</time>
      </trkpt>
      <trkpt lat="45.92942" lon="5.80307">
        <ele>495.238</ele>
        <time>2022-12-31T10:45:20Z</time>
      </trkpt>
      <trkpt lat="45.9291" lon="5.80261">
        <ele>502.947</ele>
        <time>2022-12-31T10:45:27Z</time>
      </trkpt>
      <trkpt lat="45.92918" lon="5.80249">
        <ele>506.393</ele>
        <time>2022-12-31T10:45:31Z</time>
      </trkpt>
      <trkpt lat="45.92996" lon="5.80289">
        <ele>517.822</ele>
        <time>2022-12-31T10:45:45Z</time>
      </trkpt>
      <trkpt lat="45.9307" lon="5.80263">
        <ele>525.273</ele>
        <time>2022-12-31T10:45:56Z</time>
      </trkpt>
      <trkpt lat="45.93079" lon="5.80244">
        <ele>529.821</ele>
        <time>2022-12-31T10:46:01Z</time>
      </trkpt>
      <trkpt lat="45.93003" lon="5.8022">
        <ele>538.841</ele>
        <time>2022-12-31T10:46:16Z</time>
      </trkpt>
      <trkpt lat="45.92965" lon="5.80136">
        <ele>549.305</ele>
        <time>2022-12-31T10:46:28Z</time>
      </trkpt>
      <trkpt lat="45.92656" lon="5.79997">
        <ele>595.109</ele>
        <time>2022-12-31T10:47:19Z</time>
      </trkpt>
      <trkpt lat="45.92591" lon="5.79995">
        <ele>602.683</ele>
        <time>2022-12-31T10:47:28Z</time>
      </trkpt>
      <trkpt lat="45.92441" lon="5.79849">
        <ele>622.634</ele>
        <time>2022-12-31T10:48:23Z</time>
      </trkpt>
      <trkpt lat="45.92416" lon="5.7977">
        <ele>633.684</ele>
        <time>2022-12-31T10:48:41Z</time>
      </trkpt>
      <trkpt lat="45.92376" lon="5.79715">
        <ele>643.295</ele>
        <time>2022-12-31T10:48:55Z</time>
      </trkpt>
      <trkpt lat="45.92458" lon="5.79758">
        <ele>656.536</ele>
        <time>2022-12-31T10:49:15Z</time>
      </trkpt>
      <trkpt lat="45.92552" lon="5.79759">
        <ele>670.945</ele>
        <time>2022-12-31T10:49:34Z</time>
      </trkpt>
      <trkpt lat="45.92556" lon="5.79748">
        <ele>674.081</ele>
        <time>2022-12-31T10:49:38Z</time>
      </trkpt>
      <trkpt lat="45.92496" lon="5.79692">
        <ele>684.03</ele>
        <time>2022-12-31T10:49:53Z</time>
      </trkpt>
      <trkpt lat="45.92493" lon="5.79655">
        <ele>690.081</ele>
        <time>2022-12-31T10:49:59Z</time>
      </trkpt>
      <trkpt lat="45.92541" lon="5.79676">
        <ele>696.458</ele>
        <time>2022-12-31T10:50:09Z</time>
      </trkpt>
      <trkpt lat="45.92635" lon="5.79666">
        <ele>704.352</ele>
        <time>2022-12-31T10:50:24Z</time>
      </trkpt>
      <trkpt lat="45.92685" lon="5.79708">
        <ele>712.817</ele>
        <time>2022-12-31T10:50:34Z</time>
      </trkpt>
      <trkpt lat="45.92716" lon="5.79706">
        <ele>716.609</ele>
        <time>2022-12-31T10:50:39Z</time>
      </trkpt>
      <trkpt lat="45.92747" lon="5.79781">
        <ele>722.646</ele>
        <time>2022-12-31T10:50:53Z</time>
      </trkpt>
      <trkpt lat="45.92742" lon="5.79698">
        <ele>728.857</ele>
        <time>2022-12-31T10:52:07Z</time>
      </trkpt>
      <trkpt lat="45.92701" lon="5.79571">
        <ele>739.367</ele>
        <time>2022-12-31T10:52:24Z</time>
      </trkpt>
      <trkpt lat="45.92777" lon="5.79672">
        <ele>748.698</ele>
        <time>2022-12-31T10:52:42Z</time>
      </trkpt>
      <trkpt lat="45.92804" lon="5.79679">
        <ele>751.919</ele>
        <time>2022-12-31T10:52:48Z</time>
      </trkpt>
      <trkpt lat="45.92809" lon="5.79657">
        <ele>755.428</ele>
        <time>2022-12-31T10:52:52Z</time>
      </trkpt>
      <trkpt lat="45.92742" lon="5.79544">
        <ele>767.194</ele>
        <time>2022-12-31T10:53:09Z</time>
      </trkpt>
      <trkpt lat="45.92718" lon="5.79421">
        <ele>777.523</ele>
        <time>2022-12-31T10:53:23Z</time>
      </trkpt>
      <trkpt lat="45.92705" lon="5.79416">
        <ele>779.374</ele>
        <time>2022-12-31T10:53:27Z</time>
      </trkpt>
      <trkpt lat="45.92659" lon="5.79446">
        <ele>783.219</ele>
        <time>2022-12-31T10:53:36Z</time>
      </trkpt>
      <trkpt lat="45.9264" lon="5.79422">
        <ele>786.009</ele>
        <time>2022-12-31T10:53:40Z</time>
      </trkpt>
      <trkpt lat="45.92637" lon="5.79361">
        <ele>790.719</ele>
        <time>2022-12-31T10:53:47Z</time>
      </trkpt>
      <trkpt lat="45.92535" lon="5.79323">
        <ele>794.909</ele>
        <time>2022-12-31T10:54:02Z</time>
      </trkpt>
      <trkpt lat="45.92519" lon="5.79292">
        <ele>796.222</ele>
        <time>2022-12-31T10:54:07Z</time>
      </trkpt>
      <trkpt lat="45.92587" lon="5.79288">
        <ele>801.693</ele>
        <time>2022-12-31T10:54:17Z</time>
      </trkpt>
      <trkpt lat="45.92647" lon="5.7925">
        <ele>808.633</ele>
        <time>2022-12-31T10:54:27Z</time>
      </trkpt>
      <trkpt lat="45.92769" lon="5.79245">
        <ele>823.064</ele>
        <time>2022-12-31T10:54:47Z</time>
      </trkpt>
      <trkpt lat="45.92777" lon="5.79207">
        <ele>829.925</ele>
        <time>2022-12-31T10:55:04Z</time>
      </trkpt>
      <trkpt lat="45.92767" lon="5.79186">
        <ele>832.354</ele>
        <time>2022-12-31T10:55:42Z</time>
      </trkpt>
      <trkpt lat="45.92777" lon="5.79206">
        <ele>832.39</ele>
        <time>2022-12-31T10:56:15Z</time>
      </trkpt>
      <trkpt lat="45.92808" lon="5.7921">
        <ele>831.829</ele>
        <time>2022-12-31T10:56:40Z</time>
      </trkpt>
      <trkpt lat="45.92853" lon="5.79181">
        <ele>833.86</ele>
        <time>2022-12-31T10:56:52Z</time>
      </trkpt>
      <trkpt lat="45.92864" lon="5.79205">
        <ele>835.755</ele>
        <time>2022-12-31T10:56:56Z</time>
      </trkpt>
      <trkpt lat="45.92853" lon="5.79267">
        <ele>838.007</ele>
        <time>2022-12-31T10:57:04Z</time>
      </trkpt>
      <trkpt lat="45.9287" lon="5.79286">
        <ele>842.417</ele>
        <time>2022-12-31T10:57:09Z</time>
      </trkpt>
      <trkpt lat="45.92903" lon="5.79239">
        <ele>846.709</ele>
        <time>2022-12-31T10:57:18Z</time>
      </trkpt>
      <trkpt lat="45.92976" lon="5.79223">
        <ele>855.086</ele>
        <time>2022-12-31T10:57:30Z</time>
      </trkpt>
      <trkpt lat="45.93024" lon="5.79188">
        <ele>860.477</ele>
        <time>2022-12-31T10:57:39Z</time>
      </trkpt>
      <trkpt lat="45.93091" lon="5.79185">
        <ele>868.677</ele>
        <time>2022-12-31T10:57:50Z</time>
      </trkpt>
      <trkpt lat="45.93102" lon="5.79164">
        <ele>871.018</ele>
        <time>2022-12-31T10:57:54Z</time>
      </trkpt>
      <trkpt lat="45.93039" lon="5.79064">
        <ele>881.669</ele>
        <time>2022-12-31T10:58:09Z</time>
      </trkpt>
      <trkpt lat="45.93007" lon="5.78892">
        <ele>894.988</ele>
        <time>2022-12-31T10:58:28Z</time>
      </trkpt>
      <trkpt lat="45.92976" lon="5.78847">
        <ele>900.154</ele>
        <time>2022-12-31T10:58:34Z</time>
      </trkpt>
      <trkpt lat="45.92766" lon="5.78816">
        <ele>908.963</ele>
        <time>2022-12-31T10:58:54Z</time>
      </trkpt>
      <trkpt lat="45.92655" lon="5.78816">
        <ele>918.244</ele>
        <time>2022-12-31T10:59:05Z</time>
      </trkpt>
      <trkpt lat="45.92578" lon="5.78783">
        <ele>922.822</ele>
        <time>2022-12-31T11:02:35Z</time>
      </trkpt>
      <trkpt lat="45.92467" lon="5.78762">
        <ele>932.362</ele>
        <time>2022-12-31T11:02:52Z</time>
      </trkpt>
      <trkpt lat="45.92439" lon="5.78732">
        <ele>936.908</ele>
        <time>2022-12-31T11:03:02Z</time>
      </trkpt>
      <trkpt lat="45.92407" lon="5.78733">
        <ele>938.609</ele>
        <time>2022-12-31T11:03:09Z</time>
      </trkpt>
      <trkpt lat="45.92394" lon="5.78679">
        <ele>945.433</ele>
        <time>2022-12-31T11:03:19Z</time>
      </trkpt>
      <trkpt lat="45.92374" lon="5.78675">
        <ele>949.194</ele>
        <time>2022-12-31T11:03:25Z</time>
      </trkpt>
      <trkpt lat="45.9243" lon="5.78632">
        <ele>958.574</ele>
        <time>2022-12-31T11:03:41Z</time>
      </trkpt>
      <trkpt lat="45.92488" lon="5.78491">
        <ele>971.145</ele>
        <time>2022-12-31T11:04:06Z</time>
      </trkpt>
      <trkpt lat="45.92684" lon="5.78411">
        <ele>985.996</ele>
        <time>2022-12-31T11:04:39Z</time>
      </trkpt>
      <trkpt lat="45.93025" lon="5.78406">
        <ele>1017.485</ele>
        <time>2022-12-31T11:05:38Z</time>
      </trkpt>
      <trkpt lat="45.93223" lon="5.78378">
        <ele>1040.761</ele>
        <time>2022-12-31T11:06:11Z</time>
      </trkpt>
      <trkpt lat="45.93314" lon="5.78328">
        <ele>1049.94</ele>
        <time>2022-12-31T11:06:28Z</time>
      </trkpt>
      <trkpt lat="45.93432" lon="5.78314">
        <ele>1063.641</ele>
        <time>2022-12-31T11:06:46Z</time>
      </trkpt>
      <trkpt lat="45.93771" lon="5.78193">
        <ele>1109.468</ele>
        <time>2022-12-31T11:07:43Z</time>
      </trkpt>
      <trkpt lat="45.93864" lon="5.78106">
        <ele>1122.142</ele>
        <time>2022-12-31T11:08:10Z</time>
      </trkpt>
      <trkpt lat="45.93741" lon="5.78095">
        <ele>1135.826</ele>
        <time>2022-12-31T11:09:05Z</time>
      </trkpt>
      <trkpt lat="45.93639" lon="5.78065">
        <ele>1146.909</ele>
        <time>2022-12-31T11:09:20Z</time>
      </trkpt>
      <trkpt lat="45.93479" lon="5.7806">
        <ele>1161.077</ele>
        <time>2022-12-31T11:09:46Z</time>
      </trkpt>
      <trkpt lat="45.93418" lon="5.78033">
        <ele>1166.198</ele>
        <time>2022-12-31T11:09:58Z</time>
      </trkpt>
      <trkpt lat="45.93325" lon="5.78044">
        <ele>1174.998</ele>
        <time>2022-12-31T11:10:14Z</time>
      </trkpt>
      <trkpt lat="45.93277" lon="5.78034">
        <ele>1177.119</ele>
        <time>2022-12-31T11:10:22Z</time>
      </trkpt>
      <trkpt lat="45.93222" lon="5.7799">
        <ele>1186.88</ele>
        <time>2022-12-31T11:14:43Z</time>
      </trkpt>
      <trkpt lat="45.93138" lon="5.78004">
        <ele>1187.769</ele>
        <time>2022-12-31T11:15:10Z</time>
      </trkpt>
      <trkpt lat="45.93048" lon="5.77961">
        <ele>1188.595</ele>
        <time>2022-12-31T11:15:28Z</time>
      </trkpt>
      <trkpt lat="45.92999" lon="5.77961">
        <ele>1185.494</ele>
        <time>2022-12-31T11:15:37Z</time>
      </trkpt>
      <trkpt lat="45.92918" lon="5.78001">
        <ele>1175.965</ele>
        <time>2022-12-31T11:16:05Z</time>
      </trkpt>
      <trkpt lat="45.92835" lon="5.77993">
        <ele>1175.814</ele>
        <time>2022-12-31T11:16:22Z</time>
      </trkpt>
      <trkpt lat="45.92771" lon="5.77961">
        <ele>1175.354</ele>
        <time>2022-12-31T11:16:34Z</time>
      </trkpt>
      <trkpt lat="45.92695" lon="5.77962">
        <ele>1173.609</ele>
        <time>2022-12-31T11:16:49Z</time>
      </trkpt>
      <trkpt lat="45.92665" lon="5.7794">
        <ele>1174.009</ele>
        <time>2022-12-31T11:16:57Z</time>
      </trkpt>
      <trkpt lat="45.92617" lon="5.77965">
        <ele>1175.072</ele>
        <time>2022-12-31T11:17:56Z</time>
      </trkpt>
      <trkpt lat="45.92587" lon="5.77923">
        <ele>1174.933</ele>
        <time>2022-12-31T11:18:11Z</time>
      </trkpt>
      <trkpt lat="45.92553" lon="5.77939">
        <ele>1177.143</ele>
        <time>2022-12-31T11:18:20Z</time>
      </trkpt>
      <trkpt lat="45.92396" lon="5.77927">
        <ele>1178.724</ele>
        <time>2022-12-31T11:18:45Z</time>
      </trkpt>
      <trkpt lat="45.92312" lon="5.7786">
        <ele>1178.175</ele>
        <time>2022-12-31T11:18:59Z</time>
      </trkpt>
      <trkpt lat="45.92285" lon="5.77889">
        <ele>1179.464</ele>
        <time>2022-12-31T11:19:05Z</time>
      </trkpt>
      <trkpt lat="45.92201" lon="5.77864">
        <ele>1170.96</ele>
        <time>2022-12-31T11:19:20Z</time>
      </trkpt>
      <trkpt lat="45.9209" lon="5.7792">
        <ele>1164.569</ele>
        <time>2022-12-31T11:19:37Z</time>
      </trkpt>
      <trkpt lat="45.92065" lon="5.77909">
        <ele>1163.19</ele>
        <time>2022-12-31T11:19:41Z</time>
      </trkpt>
      <trkpt lat="45.92034" lon="5.77845">
        <ele>1159.253</ele>
        <time>2022-12-31T11:19:50Z</time>
      </trkpt>
      <trkpt lat="45.91973" lon="5.7787">
        <ele>1158.304</ele>
        <time>2022-12-31T11:20:03Z</time>
      </trkpt>
      <trkpt lat="45.91939" lon="5.77851">
        <ele>1157.014</ele>
        <time>2022-12-31T11:20:10Z</time>
      </trkpt>
      <trkpt lat="45.91884" lon="5.77852">
        <ele>1157.109</ele>
        <time>2022-12-31T11:20:20Z</time>
      </trkpt>
      <trkpt lat="45.91779" lon="5.77772">
        <ele>1154.856</ele>
        <time>2022-12-31T11:21:47Z</time>
      </trkpt>
      <trkpt lat="45.91728" lon="5.77756">
        <ele>1156.287</ele>
        <time>2022-12-31T11:21:55Z</time>
      </trkpt>
      <trkpt lat="45.91691" lon="5.77704">
        <ele>1156.937</ele>
        <time>2022-12-31T11:22:03Z</time>
      </trkpt>
      <trkpt lat="45.91617" lon="5.7767">
        <ele>1156.068</ele>
        <time>2022-12-31T11:22:16Z</time>
      </trkpt>
      <trkpt lat="45.91574" lon="5.77689">
        <ele>1157.239</ele>
        <time>2022-12-31T11:22:24Z</time>
      </trkpt>
      <trkpt lat="45.9148" lon="5.7762">
        <ele>1156.938</ele>
        <time>2022-12-31T11:22:41Z</time>
      </trkpt>
      <trkpt lat="45.91413" lon="5.77676">
        <ele>1149.894</ele>
        <time>2022-12-31T11:22:55Z</time>
      </trkpt>
      <trkpt lat="45.91352" lon="5.77671">
        <ele>1146.773</ele>
        <time>2022-12-31T11:25:01Z</time>
      </trkpt>
      <trkpt lat="45.91325" lon="5.7771">
        <ele>1144.514</ele>
        <time>2022-12-31T11:25:14Z</time>
      </trkpt>
      <trkpt lat="45.91242" lon="5.77748">
        <ele>1131.097</ele>
        <time>2022-12-31T11:25:35Z</time>
      </trkpt>
      <trkpt lat="45.91193" lon="5.77793">
        <ele>1127.323</ele>
        <time>2022-12-31T11:30:58Z</time>
      </trkpt>
      <trkpt lat="45.91053" lon="5.77712">
        <ele>1126.525</ele>
        <time>2022-12-31T11:31:17Z</time>
      </trkpt>
      <trkpt lat="45.90957" lon="5.77599">
        <ele>1131.409</ele>
        <time>2022-12-31T11:31:27Z</time>
      </trkpt>
      <trkpt lat="45.90872" lon="5.77542">
        <ele>1141.46</ele>
        <time>2022-12-31T11:31:36Z</time>
      </trkpt>
      <trkpt lat="45.90779" lon="5.77574">
        <ele>1149.571</ele>
        <time>2022-12-31T11:31:46Z</time>
      </trkpt>
      <trkpt lat="45.90719" lon="5.77561">
        <ele>1158.251</ele>
        <time>2022-12-31T11:31:54Z</time>
      </trkpt>
      <trkpt lat="45.90715" lon="5.77575">
        <ele>1160.382</ele>
        <time>2022-12-31T11:33:19Z</time>
      </trkpt>
      <trkpt lat="45.90718" lon="5.77555">
        <ele>1160.233</ele>
        <time>2022-12-31T11:33:37Z</time>
      </trkpt>
      <trkpt lat="45.90701" lon="5.77536">
        <ele>1161.072</ele>
        <time>2022-12-31T11:33:42Z</time>
      </trkpt>
      <trkpt lat="45.90665" lon="5.7753">
        <ele>1165.638</ele>
        <time>2022-12-31T11:33:52Z</time>
      </trkpt>
      <trkpt lat="45.90625" lon="5.77572">
        <ele>1171.867</ele>
        <time>2022-12-31T11:34:03Z</time>
      </trkpt>
      <trkpt lat="45.90494" lon="5.77612">
        <ele>1181.288</ele>
        <time>2022-12-31T11:34:34Z</time>
      </trkpt>
      <trkpt lat="45.90303" lon="5.77613">
        <ele>1186.065</ele>
        <time>2022-12-31T11:35:11Z</time>
      </trkpt>
      <trkpt lat="45.90217" lon="5.77585">
        <ele>1187.868</ele>
        <time>2022-12-31T11:36:56Z</time>
      </trkpt>
      <trkpt lat="45.90113" lon="5.77581">
        <ele>1192.414</ele>
        <time>2022-12-31T11:37:19Z</time>
      </trkpt>
      <trkpt lat="45.89911" lon="5.77525">
        <ele>1200.109</ele>
        <time>2022-12-31T11:37:56Z</time>
      </trkpt>
      <trkpt lat="45.89837" lon="5.77464">
        <ele>1203.387</ele>
        <time>2022-12-31T11:39:25Z</time>
      </trkpt>
      <trkpt lat="45.89758" lon="5.77431">
        <ele>1190.778</ele>
        <time>2022-12-31T11:40:06Z</time>
      </trkpt>
      <trkpt lat="45.89638" lon="5.77427">
        <ele>1190.188</ele>
        <time>2022-12-31T11:40:41Z</time>
      </trkpt>
      <trkpt lat="45.89674" lon="5.77429">
        <ele>1190.689</ele>
        <time>2022-12-31T11:44:25Z</time>
      </trkpt>
      <trkpt lat="45.89548" lon="5.77423">
        <ele>1194.44</ele>
        <time>2022-12-31T11:45:03Z</time>
      </trkpt>
      <trkpt lat="45.89363" lon="5.77327">
        <ele>1210.899</ele>
        <time>2022-12-31T11:46:09Z</time>
      </trkpt>
      <trkpt lat="45.89294" lon="5.77337">
        <ele>1218.635</ele>
        <time>2022-12-31T11:46:26Z</time>
      </trkpt>
      <trkpt lat="45.89208" lon="5.7732">
        <ele>1225.524</ele>
        <time>2022-12-31T11:46:45Z</time>
      </trkpt>
      <trkpt lat="45.89014" lon="5.77223">
        <ele>1229.185</ele>
        <time>2022-12-31T11:47:55Z</time>
      </trkpt>
      <trkpt lat="45.88817" lon="5.77162">
        <ele>1226.652</ele>
        <time>2022-12-31T11:52:08Z</time>
      </trkpt>
      <trkpt lat="45.88744" lon="5.77157">
        <ele>1229.153</ele>
        <time>2022-12-31T11:52:26Z</time>
      </trkpt>
      <trkpt lat="45.88574" lon="5.77192">
        <ele>1242.508</ele>
        <time>2022-12-31T11:53:16Z</time>
      </trkpt>
      <trkpt lat="45.88445" lon="5.77186">
        <ele>1247.709</ele>
        <time>2022-12-31T11:53:51Z</time>
      </trkpt>
      <trkpt lat="45.88374" lon="5.77215">
        <ele>1250.476</ele>
        <time>2022-12-31T11:54:46Z</time>
      </trkpt>
      <trkpt lat="45.88471" lon="5.77242">
        <ele>1254.517</ele>
        <time>2022-12-31T12:51:48Z</time>
      </trkpt>
      <trkpt lat="45.88476" lon="5.77191">
        <ele>1254.987</ele>
        <time>2022-12-31T12:52:08Z</time>
      </trkpt>
      <trkpt lat="45.88452" lon="5.77186">
        <ele>1253.138</ele>
        <time>2022-12-31T12:52:22Z</time>
      </trkpt>
      <trkpt lat="45.88368" lon="5.7722">
        <ele>1255.549</ele>
        <time>2022-12-31T12:52:50Z</time>
      </trkpt>
      <trkpt lat="45.88359" lon="5.77245">
        <ele>1255.068</ele>
        <time>2022-12-31T12:53:21Z</time>
      </trkpt>
      <trkpt lat="45.8841" lon="5.77015">
        <ele>1262.624</ele>
        <time>2022-12-31T12:53:52Z</time>
      </trkpt>
      <trkpt lat="45.88373" lon="5.76884">
        <ele>1263.893</ele>
        <time>2022-12-31T12:54:03Z</time>
      </trkpt>
      <trkpt lat="45.88411" lon="5.76744">
        <ele>1269.844</ele>
        <time>2022-12-31T12:54:15Z</time>
      </trkpt>
      <trkpt lat="45.88372" lon="5.76627">
        <ele>1276.578</ele>
        <time>2022-12-31T12:54:25Z</time>
      </trkpt>
      <trkpt lat="45.88316" lon="5.76305">
        <ele>1301.233</ele>
        <time>2022-12-31T12:54:46Z</time>
      </trkpt>
      <trkpt lat="45.88294" lon="5.76273">
        <ele>1304.926</ele>
        <time>2022-12-31T12:54:49Z</time>
      </trkpt>
      <trkpt lat="45.88215" lon="5.76259">
        <ele>1316.609</ele>
        <time>2022-12-31T12:54:58Z</time>
      </trkpt>
      <trkpt lat="45.88205" lon="5.76215">
        <ele>1319.518</ele>
        <time>2022-12-31T12:55:03Z</time>
      </trkpt>
      <trkpt lat="45.8823" lon="5.76188">
        <ele>1322.439</ele>
        <time>2022-12-31T12:55:07Z</time>
      </trkpt>
      <trkpt lat="45.8851" lon="5.76054">
        <ele>1346.269</ele>
        <time>2022-12-31T12:55:32Z</time>
      </trkpt>
      <trkpt lat="45.88583" lon="5.76055">
        <ele>1352.45</ele>
        <time>2022-12-31T12:55:42Z</time>
      </trkpt>
      <trkpt lat="45.88466" lon="5.76014">
        <ele>1361.161</ele>
        <time>2022-12-31T12:57:20Z</time>
      </trkpt>
      <trkpt lat="45.88473" lon="5.75989">
        <ele>1362.38</ele>
        <time>2022-12-31T12:57:26Z</time>
      </trkpt>
      <trkpt lat="45.88516" lon="5.75962">
        <ele>1365.666</ele>
        <time>2022-12-31T12:59:22Z</time>
      </trkpt>
      <trkpt lat="45.88474" lon="5.75989">
        <ele>1364.835</ele>
        <time>2022-12-31T12:59:31Z</time>
      </trkpt>
      <trkpt lat="45.8846" lon="5.76015">
        <ele>1362.016</ele>
        <time>2022-12-31T12:59:36Z</time>
      </trkpt>
      <trkpt lat="45.88412" lon="5.7603">
        <ele>1357.215</ele>
        <time>2022-12-31T12:59:57Z</time>
      </trkpt>
      <trkpt lat="45.88329" lon="5.7599">
        <ele>1369.765</ele>
        <time>2022-12-31T13:00:08Z</time>
      </trkpt>
      <trkpt lat="45.88285" lon="5.75906">
        <ele>1374.511</ele>
        <time>2022-12-31T13:00:18Z</time>
      </trkpt>
      <trkpt lat="45.88088" lon="5.75802">
        <ele>1405.609</ele>
        <time>2022-12-31T13:00:44Z</time>
      </trkpt>
      <trkpt lat="45.88093" lon="5.75786">
        <ele>1407.462</ele>
        <time>2022-12-31T13:00:47Z</time>
      </trkpt>
      <trkpt lat="45.88173" lon="5.75764">
        <ele>1421.873</ele>
        <time>2022-12-31T13:06:34Z</time>
      </trkpt>
      <trkpt lat="45.88085" lon="5.75798">
        <ele>1409.733</ele>
        <time>2022-12-31T13:06:52Z</time>
      </trkpt>
      <trkpt lat="45.88299" lon="5.7592">
        <ele>1376.094</ele>
        <time>2022-12-31T13:07:21Z</time>
      </trkpt>
      <trkpt lat="45.88333" lon="5.75991">
        <ele>1369.555</ele>
        <time>2022-12-31T13:07:29Z</time>
      </trkpt>
      <trkpt lat="45.88412" lon="5.76032">
        <ele>1363.944</ele>
        <time>2022-12-31T13:07:37Z</time>
      </trkpt>
      <trkpt lat="45.88471" lon="5.7602">
        <ele>1361.29</ele>
        <time>2022-12-31T13:07:44Z</time>
      </trkpt>
      <trkpt lat="45.88562" lon="5.76047">
        <ele>1351.479</ele>
        <time>2022-12-31T13:08:04Z</time>
      </trkpt>
      <trkpt lat="45.88437" lon="5.76081">
        <ele>1347.96</ele>
        <time>2022-12-31T13:08:21Z</time>
      </trkpt>
      <trkpt lat="45.88231" lon="5.76189">
        <ele>1327.528</ele>
        <time>2022-12-31T13:08:39Z</time>
      </trkpt>
      <trkpt lat="45.88206" lon="5.7622">
        <ele>1326.089</ele>
        <time>2022-12-31T13:08:43Z</time>
      </trkpt>
      <trkpt lat="45.88216" lon="5.76263">
        <ele>1320.317</ele>
        <time>2022-12-31T13:08:48Z</time>
      </trkpt>
      <trkpt lat="45.88282" lon="5.76272">
        <ele>1315.609</ele>
        <time>2022-12-31T13:08:58Z</time>
      </trkpt>
      <trkpt lat="45.8832" lon="5.76321">
        <ele>1308.913</ele>
        <time>2022-12-31T13:09:03Z</time>
      </trkpt>
      <trkpt lat="45.88372" lon="5.76644">
        <ele>1283.394</ele>
        <time>2022-12-31T13:09:21Z</time>
      </trkpt>
      <trkpt lat="45.88408" lon="5.76751">
        <ele>1276.924</ele>
        <time>2022-12-31T13:09:30Z</time>
      </trkpt>
      <trkpt lat="45.88405" lon="5.76805">
        <ele>1273.665</ele>
        <time>2022-12-31T13:09:34Z</time>
      </trkpt>
      <trkpt lat="45.88374" lon="5.76883">
        <ele>1270.426</ele>
        <time>2022-12-31T13:09:41Z</time>
      </trkpt>
      <trkpt lat="45.8841" lon="5.77012">
        <ele>1267.795</ele>
        <time>2022-12-31T13:09:54Z</time>
      </trkpt>
      <trkpt lat="45.88358" lon="5.77246">
        <ele>1256.521</ele>
        <time>2022-12-31T13:10:13Z</time>
      </trkpt>
      <trkpt lat="45.883" lon="5.77254">
        <ele>1259.93</ele>
        <time>2022-12-31T13:10:44Z</time>
      </trkpt>
      <trkpt lat="45.88074" lon="5.77398">
        <ele>1272.861</ele>
        <time>2022-12-31T13:16:10Z</time>
      </trkpt>
      <trkpt lat="45.87922" lon="5.77441">
        <ele>1273.812</ele>
        <time>2022-12-31T13:16:58Z</time>
      </trkpt>
      <trkpt lat="45.87726" lon="5.77403">
        <ele>1274.432</ele>
        <time>2022-12-31T13:18:44Z</time>
      </trkpt>
      <trkpt lat="45.8762" lon="5.77428">
        <ele>1266.905</ele>
        <time>2022-12-31T13:19:28Z</time>
      </trkpt>
      <trkpt lat="45.87551" lon="5.77423">
        <ele>1262.009</ele>
        <time>2022-12-31T13:19:46Z</time>
      </trkpt>
      <trkpt lat="45.87503" lon="5.77381">
        <ele>1258.222</ele>
        <time>2022-12-31T13:20:04Z</time>
      </trkpt>
      <trkpt lat="45.87363" lon="5.77349">
        <ele>1249.333</ele>
        <time>2022-12-31T13:20:45Z</time>
      </trkpt>
      <trkpt lat="45.8727" lon="5.77284">
        <ele>1241.583</ele>
        <time>2022-12-31T13:21:21Z</time>
      </trkpt>
      <trkpt lat="45.87108" lon="5.77273">
        <ele>1237.344</ele>
        <time>2022-12-31T13:22:20Z</time>
      </trkpt>
      <trkpt lat="45.87091" lon="5.77291">
        <ele>1234.465</ele>
        <time>2022-12-31T13:22:27Z</time>
      </trkpt>
      <trkpt lat="45.87091" lon="5.77331">
        <ele>1232.084</ele>
        <time>2022-12-31T13:22:35Z</time>
      </trkpt>
      <trkpt lat="45.87144" lon="5.77524">
        <ele>1222.81</ele>
        <time>2022-12-31T13:23:46Z</time>
      </trkpt>
      <trkpt lat="45.87177" lon="5.77587">
        <ele>1217.729</ele>
        <time>2022-12-31T13:24:04Z</time>
      </trkpt>
      <trkpt lat="45.87121" lon="5.77588">
        <ele>1212.07</ele>
        <time>2022-12-31T13:24:20Z</time>
      </trkpt>
      <trkpt lat="45.87046" lon="5.77524">
        <ele>1211.347</ele>
        <time>2022-12-31T13:24:34Z</time>
      </trkpt>
      <trkpt lat="45.86846" lon="5.77446">
        <ele>1199.129</ele>
        <time>2022-12-31T13:25:03Z</time>
      </trkpt>
      <trkpt lat="45.86789" lon="5.77437">
        <ele>1196.021</ele>
        <time>2022-12-31T13:26:14Z</time>
      </trkpt>
      <trkpt lat="45.86696" lon="5.77473">
        <ele>1188.809</ele>
        <time>2022-12-31T13:26:24Z</time>
      </trkpt>
      <trkpt lat="45.86566" lon="5.77465">
        <ele>1180.395</ele>
        <time>2022-12-31T13:26:40Z</time>
      </trkpt>
      <trkpt lat="45.86547" lon="5.77425">
        <ele>1181.556</ele>
        <time>2022-12-31T13:26:48Z</time>
      </trkpt>
      <trkpt lat="45.8653" lon="5.77424">
        <ele>1180.816</ele>
        <time>2022-12-31T13:28:10Z</time>
      </trkpt>
      <trkpt lat="45.8652" lon="5.77449">
        <ele>1179.467</ele>
        <time>2022-12-31T13:28:32Z</time>
      </trkpt>
      <trkpt lat="45.86495" lon="5.77424">
        <ele>1174.438</ele>
        <time>2022-12-31T13:38:05Z</time>
      </trkpt>
      <trkpt lat="45.86559" lon="5.7748">
        <ele>1180.927</ele>
        <time>2022-12-31T13:38:44Z</time>
      </trkpt>
      <trkpt lat="45.86584" lon="5.7753">
        <ele>1178.753</ele>
        <time>2022-12-31T13:38:58Z</time>
      </trkpt>
      <trkpt lat="45.86629" lon="5.7754">
        <ele>1173.012</ele>
        <time>2022-12-31T13:39:13Z</time>
      </trkpt>
      <trkpt lat="45.86704" lon="5.77704">
        <ele>1156.893</ele>
        <time>2022-12-31T13:39:55Z</time>
      </trkpt>
      <trkpt lat="45.86654" lon="5.77745">
        <ele>1151.214</ele>
        <time>2022-12-31T13:40:13Z</time>
      </trkpt>
      <trkpt lat="45.86647" lon="5.77784">
        <ele>1148.254</ele>
        <time>2022-12-31T13:40:21Z</time>
      </trkpt>
      <trkpt lat="45.86676" lon="5.77821">
        <ele>1144.509</ele>
        <time>2022-12-31T13:40:33Z</time>
      </trkpt>
      <trkpt lat="45.86738" lon="5.77851">
        <ele>1137.109</ele>
        <time>2022-12-31T13:40:53Z</time>
      </trkpt>
      <trkpt lat="45.86626" lon="5.77924">
        <ele>1119.432</ele>
        <time>2022-12-31T13:41:31Z</time>
      </trkpt>
      <trkpt lat="45.86592" lon="5.77925">
        <ele>1113.463</ele>
        <time>2022-12-31T13:41:43Z</time>
      </trkpt>
      <trkpt lat="45.86482" lon="5.77772">
        <ele>1087.633</ele>
        <time>2022-12-31T13:42:58Z</time>
      </trkpt>
      <trkpt lat="45.86404" lon="5.77483">
        <ele>1053.944</ele>
        <time>2022-12-31T13:44:11Z</time>
      </trkpt>
      <trkpt lat="45.86357" lon="5.77391">
        <ele>1042.645</ele>
        <time>2022-12-31T13:44:41Z</time>
      </trkpt>
      <trkpt lat="45.86332" lon="5.77188">
        <ele>1021.154</ele>
        <time>2022-12-31T13:46:06Z</time>
      </trkpt>
      <trkpt lat="45.86308" lon="5.77114">
        <ele>1011.81</ele>
        <time>2022-12-31T13:46:22Z</time>
      </trkpt>
      <trkpt lat="45.86313" lon="5.77071">
        <ele>1008.479</ele>
        <time>2022-12-31T13:46:35Z</time>
      </trkpt>
      <trkpt lat="45.86332" lon="5.77053">
        <ele>1005.29</ele>
        <time>2022-12-31T13:46:46Z</time>
      </trkpt>
      <trkpt lat="45.86342" lon="5.76872">
        <ele>988.882</ele>
        <time>2022-12-31T13:48:14Z</time>
      </trkpt>
      <trkpt lat="45.86318" lon="5.76916">
        <ele>979.143</ele>
        <time>2022-12-31T13:48:48Z</time>
      </trkpt>
      <trkpt lat="45.86313" lon="5.76868">
        <ele>970.117</ele>
        <time>2022-12-31T13:49:15Z</time>
      </trkpt>
      <trkpt lat="45.86292" lon="5.76963">
        <ele>956.509</ele>
        <time>2022-12-31T13:49:45Z</time>
      </trkpt>
      <trkpt lat="45.86292" lon="5.76831">
        <ele>942.819</ele>
        <time>2022-12-31T13:50:18Z</time>
      </trkpt>
      <trkpt lat="45.8628" lon="5.76832">
        <ele>940.35</ele>
        <time>2022-12-31T13:50:26Z</time>
      </trkpt>
      <trkpt lat="45.86256" lon="5.76995">
        <ele>925.37</ele>
        <time>2022-12-31T13:51:02Z</time>
      </trkpt>
      <trkpt lat="45.86228" lon="5.77069">
        <ele>917.161</ele>
        <time>2022-12-31T13:51:26Z</time>
      </trkpt>
      <trkpt lat="45.86228" lon="5.77133">
        <ele>911.722</ele>
        <time>2022-12-31T13:51:41Z</time>
      </trkpt>
      <trkpt lat="45.86213" lon="5.77089">
        <ele>906.261</ele>
        <time>2022-12-31T13:51:55Z</time>
      </trkpt>
      <trkpt lat="45.86194" lon="5.7677">
        <ele>876.027</ele>
        <time>2022-12-31T13:54:17Z</time>
      </trkpt>
      <trkpt lat="45.86156" lon="5.76891">
        <ele>863.666</ele>
        <time>2022-12-31T13:54:34Z</time>
      </trkpt>
      <trkpt lat="45.86142" lon="5.77145">
        <ele>841.767</ele>
        <time>2022-12-31T13:55:20Z</time>
      </trkpt>
      <trkpt lat="45.86079" lon="5.7685">
        <ele>812.523</ele>
        <time>2022-12-31T13:56:19Z</time>
      </trkpt>
      <trkpt lat="45.86058" lon="5.76685">
        <ele>796.883</ele>
        <time>2022-12-31T13:56:42Z</time>
      </trkpt>
      <trkpt lat="45.86035" lon="5.76747">
        <ele>789.111</ele>
        <time>2022-12-31T13:56:54Z</time>
      </trkpt>
      <trkpt lat="45.86022" lon="5.76848">
        <ele>779.609</ele>
        <time>2022-12-31T13:57:13Z</time>
      </trkpt>
      <trkpt lat="45.8601" lon="5.76784">
        <ele>771.913</ele>
        <time>2022-12-31T13:57:29Z</time>
      </trkpt>
      <trkpt lat="45.85971" lon="5.76698">
        <ele>762.574</ele>
        <time>2022-12-31T13:57:53Z</time>
      </trkpt>
      <trkpt lat="45.85903" lon="5.76638">
        <ele>754.534</ele>
        <time>2022-12-31T13:58:11Z</time>
      </trkpt>
      <trkpt lat="45.85844" lon="5.76636">
        <ele>744.975</ele>
        <time>2022-12-31T14:07:35Z</time>
      </trkpt>
      <trkpt lat="45.85895" lon="5.76693">
        <ele>737.416</ele>
        <time>2022-12-31T14:08:11Z</time>
      </trkpt>
      <trkpt lat="45.859" lon="5.76754">
        <ele>732.275</ele>
        <time>2022-12-31T14:08:22Z</time>
      </trkpt>
      <trkpt lat="45.85928" lon="5.76805">
        <ele>726.631</ele>
        <time>2022-12-31T14:08:36Z</time>
      </trkpt>
      <trkpt lat="45.85917" lon="5.7684">
        <ele>723.34</ele>
        <time>2022-12-31T14:08:43Z</time>
      </trkpt>
      <trkpt lat="45.85924" lon="5.76896">
        <ele>717.821</ele>
        <time>2022-12-31T14:08:51Z</time>
      </trkpt>
      <trkpt lat="45.85899" lon="5.76967">
        <ele>710.937</ele>
        <time>2022-12-31T14:09:04Z</time>
      </trkpt>
      <trkpt lat="45.859" lon="5.77105">
        <ele>699.949</ele>
        <time>2022-12-31T14:09:29Z</time>
      </trkpt>
      <trkpt lat="45.85855" lon="5.76999">
        <ele>686.013</ele>
        <time>2022-12-31T14:09:55Z</time>
      </trkpt>
      <trkpt lat="45.85827" lon="5.76883">
        <ele>674.509</ele>
        <time>2022-12-31T14:10:18Z</time>
      </trkpt>
      <trkpt lat="45.85811" lon="5.77021">
        <ele>661.254</ele>
        <time>2022-12-31T14:10:37Z</time>
      </trkpt>
      <trkpt lat="45.8582" lon="5.77146">
        <ele>649.175</ele>
        <time>2022-12-31T14:10:56Z</time>
      </trkpt>
      <trkpt lat="45.85859" lon="5.77211">
        <ele>643.145</ele>
        <time>2022-12-31T14:11:08Z</time>
      </trkpt>
      <trkpt lat="45.85864" lon="5.77288">
        <ele>635.526</ele>
        <time>2022-12-31T14:11:19Z</time>
      </trkpt>
      <trkpt lat="45.85854" lon="5.7729">
        <ele>633.747</ele>
        <time>2022-12-31T14:11:23Z</time>
      </trkpt>
      <trkpt lat="45.85829" lon="5.77226">
        <ele>625.276</ele>
        <time>2022-12-31T14:11:32Z</time>
      </trkpt>
      <trkpt lat="45.85766" lon="5.77185">
        <ele>615.472</ele>
        <time>2022-12-31T14:11:43Z</time>
      </trkpt>
      <trkpt lat="45.85707" lon="5.77051">
        <ele>598.421</ele>
        <time>2022-12-31T14:12:11Z</time>
      </trkpt>
      <trkpt lat="45.85698" lon="5.771">
        <ele>592.152</ele>
        <time>2022-12-31T14:12:19Z</time>
      </trkpt>
      <trkpt lat="45.8572" lon="5.7724">
        <ele>578.538</ele>
        <time>2022-12-31T14:12:40Z</time>
      </trkpt>
      <trkpt lat="45.85751" lon="5.77272">
        <ele>574.67</ele>
        <time>2022-12-31T14:12:50Z</time>
      </trkpt>
      <trkpt lat="45.85685" lon="5.77254">
        <ele>562.017</ele>
        <time>2022-12-31T14:13:09Z</time>
      </trkpt>
      <trkpt lat="45.85627" lon="5.7716">
        <ele>548.909</ele>
        <time>2022-12-31T14:13:28Z</time>
      </trkpt>
      <trkpt lat="45.85619" lon="5.77236">
        <ele>540.944</ele>
        <time>2022-12-31T14:13:41Z</time>
      </trkpt>
      <trkpt lat="45.8564" lon="5.77285">
        <ele>535.665</ele>
        <time>2022-12-31T14:13:49Z</time>
      </trkpt>
      <trkpt lat="45.85683" lon="5.77329">
        <ele>530.315</ele>
        <time>2022-12-31T14:14:00Z</time>
      </trkpt>
      <trkpt lat="45.85619" lon="5.7731">
        <ele>519.666</ele>
        <time>2022-12-31T14:14:14Z</time>
      </trkpt>
      <trkpt lat="45.85576" lon="5.77257">
        <ele>510.627</ele>
        <time>2022-12-31T14:14:27Z</time>
      </trkpt>
      <trkpt lat="45.8551" lon="5.77294">
        <ele>501.766</ele>
        <time>2022-12-31T14:14:42Z</time>
      </trkpt>
      <trkpt lat="45.85571" lon="5.77307">
        <ele>491.462</ele>
        <time>2022-12-31T14:15:44Z</time>
      </trkpt>
      <trkpt lat="45.857" lon="5.77484">
        <ele>470.571</ele>
        <time>2022-12-31T14:16:18Z</time>
      </trkpt>
      <trkpt lat="45.85644" lon="5.77612">
        <ele>458.722</ele>
        <time>2022-12-31T14:18:33Z</time>
      </trkpt>
      <trkpt lat="45.85605" lon="5.77664">
        <ele>452.518</ele>
        <time>2022-12-31T14:18:41Z</time>
      </trkpt>
      <trkpt lat="45.85618" lon="5.77884">
        <ele>439.998</ele>
        <time>2022-12-31T14:19:01Z</time>
      </trkpt>
      <trkpt lat="45.85704" lon="5.78005">
        <ele>428.917</ele>
        <time>2022-12-31T14:19:14Z</time>
      </trkpt>
      <trkpt lat="45.85788" lon="5.78088">
        <ele>419.209</ele>
        <time>2022-12-31T14:19:25Z</time>
      </trkpt>
      <trkpt lat="45.85832" lon="5.78211">
        <ele>405.882</ele>
        <time>2022-12-31T14:19:36Z</time>
      </trkpt>
      <trkpt lat="45.85824" lon="5.78244">
        <ele>401.843</ele>
        <time>2022-12-31T14:19:44Z</time>
      </trkpt>
      <trkpt lat="45.85702" lon="5.78144">
        <ele>383.153</ele>
        <time>2022-12-31T14:20:00Z</time>
      </trkpt>
      <trkpt lat="45.85681" lon="5.78154">
        <ele>379.094</ele>
        <time>2022-12-31T14:20:04Z</time>
      </trkpt>
      <trkpt lat="45.85713" lon="5.78312">
        <ele>363.985</ele>
        <time>2022-12-31T14:20:34Z</time>
      </trkpt>
      <trkpt lat="45.85764" lon="5.78396">
        <ele>358.194</ele>
        <time>2022-12-31T14:21:03Z</time>
      </trkpt>
      <trkpt lat="45.85762" lon="5.78424">
        <ele>355.79</ele>
        <time>2022-12-31T14:21:07Z</time>
      </trkpt>
      <trkpt lat="45.85711" lon="5.78415">
        <ele>349.239</ele>
        <time>2022-12-31T14:21:17Z</time>
      </trkpt>
      <trkpt lat="45.85594" lon="5.78354">
        <ele>339.97</ele>
        <time>2022-12-31T14:21:36Z</time>
      </trkpt>
      <trkpt lat="45.85522" lon="5.78247">
        <ele>332.537</ele>
        <time>2022-12-31T15:02:48Z</time>
      </trkpt>
      <trkpt lat="45.85449" lon="5.78071">
        <ele>319.749</ele>
        <time>2022-12-31T15:03:03Z</time>
      </trkpt>
      <trkpt lat="45.85383" lon="5.77968">
        <ele>308.213</ele>
        <time>2022-12-31T15:03:17Z</time>
      </trkpt>
      <trkpt lat="45.8537" lon="5.77976">
        <ele>307.609</ele>
        <time>2022-12-31T15:03:21Z</time>
      </trkpt>
      <trkpt lat="45.8538" lon="5.78102">
        <ele>304.924</ele>
        <time>2022-12-31T15:03:31Z</time>
      </trkpt>
      <trkpt lat="45.85356" lon="5.78559">
        <ele>282.485</ele>
        <time>2022-12-31T15:03:54Z</time>
      </trkpt>
      <trkpt lat="45.85339" lon="5.78602">
        <ele>278.495</ele>
        <time>2022-12-31T15:03:59Z</time>
      </trkpt>
      <trkpt lat="45.85319" lon="5.78597">
        <ele>276.586</ele>
        <time>2022-12-31T15:04:02Z</time>
      </trkpt>
      <trkpt lat="45.85274" lon="5.78478">
        <ele>273.557</ele>
        <time>2022-12-31T15:04:12Z</time>
      </trkpt>
      <trkpt lat="45.85183" lon="5.78328">
        <ele>263.786</ele>
        <time>2022-12-31T15:04:27Z</time>
      </trkpt>
      <trkpt lat="45.85152" lon="5.78328">
        <ele>260.752</ele>
        <time>2022-12-31T15:04:31Z</time>
      </trkpt>
      <trkpt lat="45.85006" lon="5.78393">
        <ele>247.341</ele>
        <time>2022-12-31T15:04:52Z</time>
      </trkpt>
      <trkpt lat="45.84907" lon="5.78312">
        <ele>245.792</ele>
        <time>2022-12-31T15:05:02Z</time>
      </trkpt>
      <trkpt lat="45.84857" lon="5.78297">
        <ele>240.779</ele>
        <time>2022-12-31T15:05:11Z</time>
      </trkpt>
      <trkpt lat="45.84839" lon="5.78315">
        <ele>240.205</ele>
        <time>2022-12-31T15:06:23Z</time>
      </trkpt>
      <trkpt lat="45.84792" lon="5.78316">
        <ele>238.125</ele>
        <time>2022-12-31T15:07:03Z</time>
      </trkpt>
      <trkpt lat="45.84773" lon="5.78502">
        <ele>235.609</ele>
        <time>2022-12-31T15:07:15Z</time>
      </trkpt>
      <trkpt lat="45.84777" lon="5.78607">
        <ele>233.398</ele>
        <time>2022-12-31T15:07:21Z</time>
      </trkpt>
      <trkpt lat="45.8488" lon="5.79199">
        <ele>228.389</ele>
        <time>2022-12-31T15:08:02Z</time>
      </trkpt>
      <trkpt lat="45.84917" lon="5.79263">
        <ele>232.569</ele>
        <time>2022-12-31T15:08:07Z</time>
      </trkpt>
      <trkpt lat="45.8508" lon="5.79389">
        <ele>233.62</ele>
        <time>2022-12-31T15:08:23Z</time>
      </trkpt>
      <trkpt lat="45.85107" lon="5.7945">
        <ele>235.491</ele>
        <time>2022-12-31T15:08:28Z</time>
      </trkpt>
      <trkpt lat="45.84995" lon="5.79726">
        <ele>237.56</ele>
        <time>2022-12-31T15:08:45Z</time>
      </trkpt>
      <trkpt lat="45.84932" lon="5.79801">
        <ele>234.756</ele>
        <time>2022-12-31T15:08:54Z</time>
      </trkpt>
      <trkpt lat="45.84942" lon="5.79919">
        <ele>237.795</ele>
        <time>2022-12-31T15:09:03Z</time>
      </trkpt>
      <trkpt lat="45.84858" lon="5.80659">
        <ele>234.516</ele>
        <time>2022-12-31T15:09:36Z</time>
      </trkpt>
      <trkpt lat="45.84833" lon="5.80737">
        <ele>232.487</ele>
        <time>2022-12-31T15:09:44Z</time>
      </trkpt>
      <trkpt lat="45.84811" lon="5.81078">
        <ele>236.742</ele>
        <time>2022-12-31T15:10:03Z</time>
      </trkpt>
      <trkpt lat="45.8485" lon="5.81272">
        <ele>234.726</ele>
        <time>2022-12-31T15:10:11Z</time>
      </trkpt>
      <trkpt lat="45.85111" lon="5.81833">
        <ele>237.809</ele>
        <time>2022-12-31T15:10:36Z</time>
      </trkpt>
      <trkpt lat="45.85143" lon="5.82076">
        <ele>229.079</ele>
        <time>2022-12-31T15:10:55Z</time>
      </trkpt>
      <trkpt lat="45.85163" lon="5.81966">
        <ele>229.14</ele>
        <time>2022-12-31T15:11:12Z</time>
      </trkpt>
      <trkpt lat="45.85136" lon="5.8199">
        <ele>229.33</ele>
        <time>2022-12-31T15:11:44Z</time>
      </trkpt>
      <trkpt lat="45.85084" lon="5.83054">
        <ele>230.121</ele>
        <time>2022-12-31T15:12:45Z</time>
      </trkpt>
      <trkpt lat="45.85124" lon="5.82412">
        <ele>230.472</ele>
        <time>2022-12-31T15:14:07Z</time>
      </trkpt>
      <trkpt lat="45.85991" lon="5.82728">
        <ele>230.081</ele>
        <time>2022-12-31T15:16:26Z</time>
      </trkpt>
      <trkpt lat="45.86386" lon="5.82852">
        <ele>230.747</ele>
        <time>2022-12-31T15:17:36Z</time>
      </trkpt>
      <trkpt lat="45.864" lon="5.82418">
        <ele>232.096</ele>
        <time>2022-12-31T15:18:41Z</time>
      </trkpt>
      <trkpt lat="45.86477" lon="5.81919">
        <ele>231.417</ele>
        <time>2022-12-31T15:20:51Z</time>
      </trkpt>
      <trkpt lat="45.86564" lon="5.8196">
        <ele>232.439</ele>
        <time>2022-12-31T15:21:07Z</time>
      </trkpt>
      <trkpt lat="45.8663" lon="5.81959">
        <ele>231.701</ele>
        <time>2022-12-31T15:21:15Z</time>
      </trkpt>
      <trkpt lat="45.86772" lon="5.82019">
        <ele>234.521</ele>
        <time>2022-12-31T15:21:47Z</time>
      </trkpt>
      <trkpt lat="45.86933" lon="5.82117">
        <ele>233.909</ele>
        <time>2022-12-31T15:22:20Z</time>
      </trkpt>
      <trkpt lat="45.86988" lon="5.82133">
        <ele>234.564</ele>
        <time>2022-12-31T15:22:35Z</time>
      </trkpt>
      <trkpt lat="45.8707" lon="5.82115">
        <ele>234.695</ele>
        <time>2022-12-31T15:23:00Z</time>
      </trkpt>
      <trkpt lat="45.87225" lon="5.82171">
        <ele>234.095</ele>
        <time>2022-12-31T15:23:25Z</time>
      </trkpt>
      <trkpt lat="45.87249" lon="5.82155">
        <ele>235.096</ele>
        <time>2022-12-31T15:23:31Z</time>
      </trkpt>
      <trkpt lat="45.87288" lon="5.82161">
        <ele>235.217</ele>
        <time>2022-12-31T15:23:42Z</time>
      </trkpt>
      <trkpt lat="45.87378" lon="5.82263">
        <ele>234.096</ele>
        <time>2022-12-31T15:23:59Z</time>
      </trkpt>
      <trkpt lat="45.87443" lon="5.82371">
        <ele>233.682</ele>
        <time>2022-12-31T15:24:12Z</time>
      </trkpt>
      <trkpt lat="45.87512" lon="5.82351">
        <ele>234.061</ele>
        <time>2022-12-31T15:24:21Z</time>
      </trkpt>
      <trkpt lat="45.87546" lon="5.82373">
        <ele>234.982</ele>
        <time>2022-12-31T15:24:27Z</time>
      </trkpt>
      <trkpt lat="45.87534" lon="5.8236">
        <ele>235.148</ele>
        <time>2022-12-31T15:24:50Z</time>
      </trkpt>
      <trkpt lat="45.87481" lon="5.82365">
        <ele>235.161</ele>
        <time>2022-12-31T15:25:50Z</time>
      </trkpt>
      <trkpt lat="45.87519" lon="5.82352">
        <ele>235.017</ele>
        <time>2022-12-31T15:29:15Z</time>
      </trkpt>
      <trkpt lat="45.87567" lon="5.82388">
        <ele>234.609</ele>
        <time>2022-12-31T15:29:46Z</time>
      </trkpt>
      <trkpt lat="45.87602" lon="5.82395">
        <ele>234.575</ele>
        <time>2022-12-31T15:29:57Z</time>
      </trkpt>
      <trkpt lat="45.8772" lon="5.82323">
        <ele>233.656</ele>
        <time>2022-12-31T15:30:24Z</time>
      </trkpt>
      <trkpt lat="45.87861" lon="5.82355">
        <ele>235.176</ele>
        <time>2022-12-31T15:30:41Z</time>
      </trkpt>
      <trkpt lat="45.88025" lon="5.82422">
        <ele>234.937</ele>
        <time>2022-12-31T15:31:01Z</time>
      </trkpt>
      <trkpt lat="45.88622" lon="5.83072">
        <ele>237.788</ele>
        <time>2022-12-31T15:32:27Z</time>
      </trkpt>
      <trkpt lat="45.88907" lon="5.83486">
        <ele>237.947</ele>
        <time>2022-12-31T15:33:15Z</time>
      </trkpt>
      <trkpt lat="45.8891" lon="5.83313">
        <ele>239.093</ele>
        <time>2022-12-31T15:34:02Z</time>
      </trkpt>
      <trkpt lat="45.88882" lon="5.83125">
        <ele>238.432</ele>
        <time>2022-12-31T15:35:06Z</time>
      </trkpt>
      <trkpt lat="45.88989" lon="5.82763">
        <ele>238.993</ele>
        <time>2022-12-31T15:36:10Z</time>
      </trkpt>
      <trkpt lat="45.90755" lon="5.83392">
        <ele>242.477</ele>
        <time>2022-12-31T15:44:53Z</time>
      </trkpt>
      <trkpt lat="45.90765" lon="5.83408">
        <ele>242.661</ele>
        <time>2022-12-31T15:44:57Z</time>
      </trkpt>
      <trkpt lat="45.90771" lon="5.83576">
        <ele>242.327</ele>
        <time>2022-12-31T15:45:21Z</time>
      </trkpt>
      <trkpt lat="45.90845" lon="5.83861">
        <ele>246.209</ele>
        <time>2022-12-31T15:46:00Z</time>
      </trkpt>
      <trkpt lat="45.90834" lon="5.83926">
        <ele>250.368</ele>
        <time>2022-12-31T15:46:09Z</time>
      </trkpt>
      <trkpt lat="45.90771" lon="5.83938">
        <ele>253.349</ele>
        <time>2022-12-31T15:46:22Z</time>
      </trkpt>
      <trkpt lat="45.90773" lon="5.83958">
        <ele>254.029</ele>
        <time>2022-12-31T15:46:42Z</time>
      </trkpt>
      <trkpt lat="45.90908" lon="5.83948">
        <ele>265.44</ele>
        <time>2022-12-31T15:46:53Z</time>
      </trkpt>
      <trkpt lat="45.91119" lon="5.83977">
        <ele>277.641</ele>
        <time>2022-12-31T15:47:06Z</time>
      </trkpt>
      <trkpt lat="45.91212" lon="5.83931">
        <ele>283.33</ele>
        <time>2022-12-31T15:47:12Z</time>
      </trkpt>
      <trkpt lat="45.91445" lon="5.83949">
        <ele>287.146</ele>
        <time>2022-12-31T15:47:25Z</time>
      </trkpt>
      <trkpt lat="45.91828" lon="5.83877">
        <ele>279.235</ele>
        <time>2022-12-31T15:47:45Z</time>
      </trkpt>
      <trkpt lat="45.91945" lon="5.83828">
        <ele>275.936</ele>
        <time>2022-12-31T15:47:52Z</time>
      </trkpt>
      <trkpt lat="45.92259" lon="5.8375">
        <ele>281.029</ele>
        <time>2022-12-31T15:48:10Z</time>
      </trkpt>
      <trkpt lat="45.92302" lon="5.8369">
        <ele>282.8</ele>
        <time>2022-12-31T15:48:14Z</time>
      </trkpt>
      <trkpt lat="45.92355" lon="5.83506">
        <ele>286.22</ele>
        <time>2022-12-31T15:48:23Z</time>
      </trkpt>
      <trkpt lat="45.92576" lon="5.83413">
        <ele>287.409</ele>
        <time>2022-12-31T15:48:42Z</time>
      </trkpt>
      <trkpt lat="45.9269" lon="5.83426">
        <ele>289.623</ele>
        <time>2022-12-31T15:48:53Z</time>
      </trkpt>
      <trkpt lat="45.92719" lon="5.83415">
        <ele>290.454</ele>
        <time>2022-12-31T15:48:56Z</time>
      </trkpt>
      <trkpt lat="45.92862" lon="5.83125">
        <ele>293.754</ele>
        <time>2022-12-31T15:49:20Z</time>
      </trkpt>
      <trkpt lat="45.93156" lon="5.82931">
        <ele>289.835</ele>
        <time>2022-12-31T15:49:45Z</time>
      </trkpt>
      <trkpt lat="45.93189" lon="5.82959">
        <ele>288.186</ele>
        <time>2022-12-31T15:49:49Z</time>
      </trkpt>
      <trkpt lat="45.93233" lon="5.83094">
        <ele>282.465</ele>
        <time>2022-12-31T15:49:58Z</time>
      </trkpt>
      <trkpt lat="45.9329" lon="5.83129">
        <ele>277.911</ele>
        <time>2022-12-31T15:50:06Z</time>
      </trkpt>
      <trkpt lat="45.93199" lon="5.83325">
        <ele>270.26</ele>
        <time>2022-12-31T15:50:21Z</time>
      </trkpt>
      <trkpt lat="45.932" lon="5.83579">
        <ele>260.011</ele>
        <time>2022-12-31T15:50:35Z</time>
      </trkpt>
      <trkpt lat="45.93238" lon="5.83632">
        <ele>258.365</ele>
        <time>2022-12-31T15:50:41Z</time>
      </trkpt>
      <trkpt lat="45.93343" lon="5.83679">
        <ele>257.768</ele>
        <time>2022-12-31T15:50:51Z</time>
      </trkpt>
      <trkpt lat="45.94005" lon="5.83616">
        <ele>255.114</ele>
        <time>2022-12-31T15:51:34Z</time>
      </trkpt>
      <trkpt lat="45.94216" lon="5.83637">
        <ele>254.709</ele>
        <time>2022-12-31T15:51:47Z</time>
      </trkpt>
      <trkpt lat="45.94388" lon="5.83698">
        <ele>255.567</ele>
        <time>2022-12-31T15:51:58Z</time>
      </trkpt>
      <trkpt lat="45.94767" lon="5.83937">
        <ele>261.098</ele>
        <time>2022-12-31T15:52:22Z</time>
      </trkpt>
      <trkpt lat="45.94864" lon="5.83973">
        <ele>257.638</ele>
        <time>2022-12-31T15:52:28Z</time>
      </trkpt>
      <trkpt lat="45.9498" lon="5.83959">
        <ele>255.269</ele>
        <time>2022-12-31T15:52:37Z</time>
      </trkpt>
      <trkpt lat="45.95252" lon="5.8385">
        <ele>256.01</ele>
        <time>2022-12-31T15:52:59Z</time>
      </trkpt>
      <trkpt lat="45.95378" lon="5.83772">
        <ele>252.059</ele>
        <time>2022-12-31T15:53:12Z</time>
      </trkpt>
      <trkpt lat="45.95461" lon="5.83768">
        <ele>253.095</ele>
        <time>2022-12-31T15:53:29Z</time>
      </trkpt>
      <trkpt lat="45.95756" lon="5.83649">
        <ele>256.924</ele>
        <time>2022-12-31T15:53:55Z</time>
      </trkpt>
      <trkpt lat="45.95854" lon="5.83643">
        <ele>257.955</ele>
        <time>2022-12-31T15:54:03Z</time>
      </trkpt>
      <trkpt lat="45.9638" lon="5.83702">
        <ele>261.691</ele>
        <time>2022-12-31T15:54:53Z</time>
      </trkpt>
      <trkpt lat="45.96399" lon="5.83729">
        <ele>261.681</ele>
        <time>2022-12-31T15:54:58Z</time>
      </trkpt>
      <trkpt lat="45.96413" lon="5.83718">
        <ele>261.919</ele>
        <time>2022-12-31T15:55:02Z</time>
      </trkpt>
      <trkpt lat="45.96397" lon="5.83713">
        <ele>261.409</ele>
        <time>2022-12-31T15:57:50Z</time>
      </trkpt>
      <trkpt lat="45.96405" lon="5.83684">
        <ele>261.49</ele>
        <time>2022-12-31T15:57:56Z</time>
      </trkpt>
      <trkpt lat="45.96593" lon="5.83569">
        <ele>276.911</ele>
        <time>2022-12-31T15:58:13Z</time>
      </trkpt>
      <trkpt lat="45.96698" lon="5.83554">
        <ele>279.751</ele>
        <time>2022-12-31T15:58:21Z</time>
      </trkpt>
      <trkpt lat="45.97138" lon="5.83571">
        <ele>281.492</ele>
        <time>2022-12-31T15:58:51Z</time>
      </trkpt>
      <trkpt lat="45.97202" lon="5.83613">
        <ele>277.813</ele>
        <time>2022-12-31T15:58:55Z</time>
      </trkpt>
      <trkpt lat="45.9725" lon="5.83687">
        <ele>276.392</ele>
        <time>2022-12-31T15:58:59Z</time>
      </trkpt>
      <trkpt lat="45.97308" lon="5.83743">
        <ele>272.468</ele>
        <time>2022-12-31T15:59:03Z</time>
      </trkpt>
      <trkpt lat="45.97356" lon="5.83762">
        <ele>269.147</ele>
        <time>2022-12-31T15:59:06Z</time>
      </trkpt>
      <trkpt lat="45.97509" lon="5.83768">
        <ele>263.118</ele>
        <time>2022-12-31T15:59:15Z</time>
      </trkpt>
      <trkpt lat="45.97647" lon="5.83851">
        <ele>261.656</ele>
        <time>2022-12-31T15:59:26Z</time>
      </trkpt>
      <trkpt lat="45.97694" lon="5.83748">
        <ele>263.359</ele>
        <time>2022-12-31T15:59:36Z</time>
      </trkpt>
      <trkpt lat="45.97688" lon="5.83707">
        <ele>263.614</ele>
        <time>2022-12-31T15:59:39Z</time>
      </trkpt>
      <trkpt lat="45.97625" lon="5.83592">
        <ele>270.009</ele>
        <time>2022-12-31T15:59:47Z</time>
      </trkpt>
      <trkpt lat="45.97551" lon="5.83543">
        <ele>273.876</ele>
        <time>2022-12-31T15:59:54Z</time>
      </trkpt>
      <trkpt lat="45.97546" lon="5.83497">
        <ele>274.067</ele>
        <time>2022-12-31T15:59:58Z</time>
      </trkpt>
      <trkpt lat="45.97561" lon="5.83489">
        <ele>274.757</ele>
        <time>2022-12-31T16:00:00Z</time>
      </trkpt>
      <trkpt lat="45.97713" lon="5.83608">
        <ele>286.788</ele>
        <time>2022-12-31T16:00:14Z</time>
      </trkpt>
      <trkpt lat="45.9781" lon="5.83753">
        <ele>295.199</ele>
        <time>2022-12-31T16:00:24Z</time>
      </trkpt>
      <trkpt lat="45.97892" lon="5.83805">
        <ele>298.778</ele>
        <time>2022-12-31T16:00:30Z</time>
      </trkpt>
      <trkpt lat="45.98239" lon="5.83784">
        <ele>306.634</ele>
        <time>2022-12-31T16:00:50Z</time>
      </trkpt>
      <trkpt lat="45.98503" lon="5.83674">
        <ele>321.453</ele>
        <time>2022-12-31T16:01:06Z</time>
      </trkpt>
      <trkpt lat="45.98586" lon="5.83579">
        <ele>326.944</ele>
        <time>2022-12-31T16:01:12Z</time>
      </trkpt>
      <trkpt lat="45.98795" lon="5.8328">
        <ele>334.199</ele>
        <time>2022-12-31T16:01:29Z</time>
      </trkpt>
      <trkpt lat="45.98925" lon="5.82988">
        <ele>344.007</ele>
        <time>2022-12-31T16:01:43Z</time>
      </trkpt>
      <trkpt lat="45.9896" lon="5.82877">
        <ele>348.027</ele>
        <time>2022-12-31T16:01:48Z</time>
      </trkpt>
      <trkpt lat="45.98966" lon="5.82708">
        <ele>352.909</ele>
        <time>2022-12-31T16:01:55Z</time>
      </trkpt>
      <trkpt lat="45.98925" lon="5.82548">
        <ele>360.76</ele>
        <time>2022-12-31T16:02:02Z</time>
      </trkpt>
      <trkpt lat="45.98914" lon="5.82449">
        <ele>362.661</ele>
        <time>2022-12-31T16:02:06Z</time>
      </trkpt>
      <trkpt lat="45.98957" lon="5.82175">
        <ele>366.271</ele>
        <time>2022-12-31T16:02:17Z</time>
      </trkpt>
      <trkpt lat="45.99" lon="5.82095">
        <ele>364.752</ele>
        <time>2022-12-31T16:02:21Z</time>
      </trkpt>
      <trkpt lat="45.99078" lon="5.82037">
        <ele>367.953</ele>
        <time>2022-12-31T16:02:26Z</time>
      </trkpt>
      <trkpt lat="45.99511" lon="5.81909">
        <ele>383.962</ele>
        <time>2022-12-31T16:03:01Z</time>
      </trkpt>
      <trkpt lat="45.99499" lon="5.81772">
        <ele>394.038</ele>
        <time>2022-12-31T16:03:21Z</time>
      </trkpt>
      <trkpt lat="45.9945" lon="5.81642">
        <ele>396.797</ele>
        <time>2022-12-31T16:03:44Z</time>
      </trkpt>
      <trkpt lat="45.99417" lon="5.81595">
        <ele>390.918</ele>
        <time>2022-12-31T16:04:52Z</time>
      </trkpt>
      <trkpt lat="45.99445" lon="5.81561">
        <ele>384.558</ele>
        <time>2022-12-31T16:05:18Z</time>
      </trkpt>
      <trkpt lat="45.99454" lon="5.81477">
        <ele>373.852</ele>
        <time>2022-12-31T16:05:50Z</time>
      </trkpt>
      <trkpt lat="45.99502" lon="5.81404">
        <ele>362.017</ele>
        <time>2022-12-31T16:06:29Z</time>
      </trkpt>
      <trkpt lat="45.99611" lon="5.814">
        <ele>339.709</ele>
        <time>2022-12-31T16:07:28Z</time>
      </trkpt>
      <trkpt lat="45.99672" lon="5.81367">
        <ele>342.066</ele>
        <time>2022-12-31T16:07:46Z</time>
      </trkpt>
      <trkpt lat="45.99716" lon="5.81364">
        <ele>337.887</ele>
        <time>2022-12-31T16:08:02Z</time>
      </trkpt>
      <trkpt lat="45.9977" lon="5.81334">
        <ele>330.327</ele>
        <time>2022-12-31T16:08:24Z</time>
      </trkpt>
      <trkpt lat="45.99814" lon="5.8128">
        <ele>321.448</ele>
        <time>2022-12-31T16:08:51Z</time>
      </trkpt>
      <trkpt lat="45.99915" lon="5.81228">
        <ele>302.649</ele>
        <time>2022-12-31T16:09:46Z</time>
      </trkpt>
      <trkpt lat="45.99997" lon="5.81226">
        <ele>290.468</ele>
        <time>2022-12-31T16:10:56Z</time>
      </trkpt>
      <trkpt lat="46.00035" lon="5.81267">
        <ele>280.754</ele>
        <time>2022-12-31T16:11:24Z</time>
      </trkpt>
      <trkpt lat="46.00165" lon="5.81171">
        <ele>271.943</ele>
        <time>2022-12-31T16:12:15Z</time>
      </trkpt>
      <trkpt lat="46.00344" lon="5.8116">
        <ele>278.814</ele>
        <time>2022-12-31T16:13:08Z</time>
      </trkpt>
      <trkpt lat="46.00523" lon="5.81109">
        <ele>278.272</ele>
        <time>2022-12-31T16:13:45Z</time>
      </trkpt>
      <trkpt lat="46.0062" lon="5.81136">
        <ele>278.513</ele>
        <time>2022-12-31T16:14:12Z</time>
      </trkpt>
      <trkpt lat="46.0074" lon="5.81135">
        <ele>278.214</ele>
        <time>2022-12-31T16:14:41Z</time>
      </trkpt>
      <trkpt lat="46.00848" lon="5.81193">
        <ele>278.109</ele>
        <time>2022-12-31T16:15:09Z</time>
      </trkpt>
      <trkpt lat="46.00947" lon="5.81186">
        <ele>278.148</ele>
        <time>2022-12-31T16:15:35Z</time>
      </trkpt>
      <trkpt lat="46.00991" lon="5.81212">
        <ele>277.329</ele>
        <time>2022-12-31T16:34:36Z</time>
      </trkpt>
      <trkpt lat="46.01025" lon="5.81357">
        <ele>276.819</ele>
        <time>2022-12-31T16:36:27Z</time>
      </trkpt>
      <trkpt lat="46.01061" lon="5.81387">
        <ele>276.99</ele>
        <time>2022-12-31T16:36:38Z</time>
      </trkpt>
      <trkpt lat="46.011" lon="5.81364">
        <ele>277.271</ele>
        <time>2022-12-31T16:36:50Z</time>
      </trkpt>
      <trkpt lat="46.01153" lon="5.81173">
        <ele>277.19</ele>
        <time>2022-12-31T16:37:58Z</time>
      </trkpt>
      <trkpt lat="46.01164" lon="5.81042">
        <ele>275.346</ele>
        <time>2022-12-31T16:38:24Z</time>
      </trkpt>
      <trkpt lat="46.01245" lon="5.80975">
        <ele>277.085</ele>
        <time>2022-12-31T16:38:43Z</time>
      </trkpt>
      <trkpt lat="46.01302" lon="5.80978">
        <ele>275.266</ele>
        <time>2022-12-31T16:38:56Z</time>
      </trkpt>
      <trkpt lat="46.01395" lon="5.8086">
        <ele>283.675</ele>
        <time>2022-12-31T16:39:39Z</time>
      </trkpt>
      <trkpt lat="46.01436" lon="5.80864">
        <ele>287.228</ele>
        <time>2022-12-31T16:39:48Z</time>
      </trkpt>
      <trkpt lat="46.01471" lon="5.80847">
        <ele>291.02</ele>
        <time>2022-12-31T16:39:57Z</time>
      </trkpt>
      <trkpt lat="46.01487" lon="5.80777">
        <ele>295.309</ele>
        <time>2022-12-31T16:40:08Z</time>
      </trkpt>
      <trkpt lat="46.0153" lon="5.80708">
        <ele>301.298</ele>
        <time>2022-12-31T16:40:22Z</time>
      </trkpt>
      <trkpt lat="46.01539" lon="5.80718">
        <ele>302.819</ele>
        <time>2022-12-31T16:40:29Z</time>
      </trkpt>
    </trkseg>
  </trk>
</gpx>